createdAt,value
2022-10-16T00:01:40.063Z,16.73
2022-10-16T00:04:09.463Z,16.44
2022-10-16T00:06:36.243Z,16.94
2022-10-16T00:09:06.427Z,16.45
2022-10-16T00:11:37.804Z,16.95
2022-10-16T00:14:07.954Z,16.34
2022-10-16T00:16:35.215Z,16.83
2022-10-16T00:19:01.998Z,16.82
2022-10-16T00:21:30.231Z,16.41
2022-10-16T00:24:00.244Z,16.82
2022-10-16T00:26:27.909Z,16.75
2022-10-16T00:28:54.670Z,16.53
2022-10-16T00:31:23.233Z,16.74
2022-10-16T00:33:50.389Z,16.79
2022-10-16T00:36:22.523Z,16.76
2022-10-16T00:38:54.698Z,16.76
2022-10-16T00:41:22.554Z,16.77
2022-10-16T00:43:49.135Z,16.75
2022-10-16T00:46:23.142Z,16.64
2022-10-16T00:49:01.793Z,16.47
2022-10-16T00:51:48.204Z,16.58
2022-10-16T00:54:17.550Z,16.48
2022-10-16T00:56:48.444Z,15.95
2022-10-16T00:59:28.456Z,15.75
2022-10-16T01:01:55.803Z,15.77
2022-10-16T01:04:23.211Z,16.40
2022-10-16T01:07:08.547Z,16.51
2022-10-16T01:09:48.271Z,16.55
2022-10-16T01:12:38.698Z,16.06
2022-10-16T01:15:17.883Z,16.53
2022-10-16T01:17:57.656Z,16.52
2022-10-16T01:20:31.526Z,16.48
2022-10-16T01:23:11.861Z,16.38
2022-10-16T01:26:00.431Z,16.41
2022-10-16T01:28:34.666Z,16.36
2022-10-16T01:31:02.774Z,15.94
2022-10-16T01:36:32.384Z,15.67
2022-10-16T01:39:02.249Z,15.92
2022-10-16T01:41:35.280Z,15.53
2022-10-16T01:44:11.802Z,15.45
2022-10-16T01:46:41.109Z,16.03
2022-10-16T01:49:12.586Z,16.00
2022-10-16T01:51:40.042Z,15.52
2022-10-16T01:54:09.368Z,15.56
2022-10-16T01:56:36.023Z,15.86
2022-10-16T01:59:07.443Z,15.81
2022-10-16T02:01:35.757Z,15.22
2022-10-16T02:04:10.696Z,15.69
2022-10-16T02:06:37.793Z,15.26
2022-10-16T02:09:04.474Z,15.49
2022-10-16T02:11:31.192Z,15.52
2022-10-16T02:14:05.291Z,14.57
2022-10-16T02:16:43.512Z,15.30
2022-10-16T02:19:14.188Z,15.30
2022-10-16T02:21:47.055Z,14.62
2022-10-16T02:24:31.274Z,15.30
2022-10-16T02:27:04.013Z,15.23
2022-10-16T02:29:32.054Z,14.91
2022-10-16T02:32:04.060Z,15.16
2022-10-16T02:34:34.919Z,14.63
2022-10-16T02:37:09.840Z,14.83
2022-10-16T02:39:36.554Z,14.69
2022-10-16T02:42:05.994Z,14.50
2022-10-16T02:44:32.776Z,15.01
2022-10-16T02:47:02.238Z,15.04
2022-10-16T02:49:28.985Z,14.82
2022-10-16T02:51:55.866Z,14.55
2022-10-16T02:54:22.579Z,14.27
2022-10-16T02:56:49.825Z,14.92
2022-10-16T02:59:16.786Z,14.52
2022-10-16T03:01:43.516Z,14.97
2022-10-16T03:04:10.235Z,14.55
2022-10-16T03:06:37.273Z,14.94
2022-10-16T03:09:03.946Z,14.67
2022-10-16T03:11:32.703Z,14.26
2022-10-16T03:13:59.377Z,14.26
2022-10-16T03:16:26.052Z,14.65
2022-10-16T03:18:52.735Z,14.08
2022-10-16T03:21:19.448Z,14.25
2022-10-16T03:23:46.112Z,14.41
2022-10-16T03:26:12.807Z,14.55
2022-10-16T03:28:39.487Z,14.79
2022-10-16T03:31:11.452Z,14.45
2022-10-16T03:33:38.166Z,14.80
2022-10-16T03:36:04.937Z,14.54
2022-10-16T03:38:31.610Z,14.60
2022-10-16T03:40:58.351Z,14.52
2022-10-16T03:43:25.070Z,14.59
2022-10-16T03:45:54.934Z,14.54
2022-10-16T03:48:21.711Z,14.57
2022-10-16T03:50:49.419Z,13.94
2022-10-16T03:53:16.424Z,14.30
2022-10-16T03:55:43.796Z,14.49
2022-10-16T03:58:10.614Z,13.95
2022-10-16T04:00:37.356Z,14.26
2022-10-16T04:03:06.536Z,14.34
2022-10-16T04:05:33.198Z,13.70
2022-10-16T04:08:02.944Z,13.92
2022-10-16T04:10:34.065Z,14.14
2022-10-16T04:13:00.778Z,13.68
2022-10-16T04:15:27.499Z,13.85
2022-10-16T04:17:56.514Z,13.95
2022-10-16T04:20:23.292Z,13.89
2022-10-16T04:22:49.939Z,13.98
2022-10-16T04:25:16.700Z,13.92
2022-10-16T04:27:46.292Z,13.78
2022-10-16T04:30:15.824Z,13.57
2022-10-16T04:32:42.603Z,14.03
2022-10-16T04:35:12.129Z,13.50
2022-10-16T04:37:39.023Z,13.99
2022-10-16T04:40:06.219Z,13.96
2022-10-16T04:42:35.261Z,13.95
2022-10-16T04:45:02.332Z,13.63
2022-10-16T04:47:32.174Z,13.47
2022-10-16T04:50:03.534Z,13.35
2022-10-16T04:52:30.496Z,13.35
2022-10-16T04:55:02.630Z,14.03
2022-10-16T04:57:30.707Z,13.42
2022-10-16T04:59:58.361Z,13.33
2022-10-16T05:02:25.256Z,13.72
2022-10-16T05:04:52.641Z,13.72
2022-10-16T05:07:22.016Z,13.85
2022-10-16T05:09:48.808Z,13.11
2022-10-16T05:12:18.339Z,13.44
2022-10-16T05:14:45.114Z,13.44
2022-10-16T05:17:12.517Z,13.11
2022-10-16T05:19:39.795Z,13.76
2022-10-16T05:22:10.083Z,13.11
2022-10-16T05:24:37.187Z,13.19
2022-10-16T05:27:04.332Z,13.25
2022-10-16T05:29:35.248Z,13.74
2022-10-16T05:32:04.667Z,12.28
2022-10-16T05:34:31.665Z,12.96
2022-10-16T05:37:02.715Z,13.58
2022-10-16T05:39:35.913Z,13.04
2022-10-16T05:42:12.141Z,13.83
2022-10-16T05:44:41.490Z,13.71
2022-10-16T05:47:11.812Z,13.89
2022-10-16T05:49:41.315Z,13.31
2022-10-16T05:52:08.661Z,13.71
2022-10-16T05:54:35.446Z,13.95
2022-10-16T05:57:03.205Z,12.61
2022-10-16T05:59:29.880Z,14.01
2022-10-16T06:01:59.020Z,13.37
2022-10-16T06:04:25.707Z,13.44
2022-10-16T06:06:54.889Z,13.78
2022-10-16T06:09:23.865Z,14.05
2022-10-16T06:11:52.730Z,14.20
2022-10-16T06:14:21.740Z,14.14
2022-10-16T06:16:48.453Z,13.71
2022-10-16T06:19:16.351Z,14.13
2022-10-16T06:21:45.747Z,14.34
2022-10-16T06:24:15.021Z,14.01
2022-10-16T06:26:44.087Z,13.84
2022-10-16T06:29:12.917Z,14.28
2022-10-16T06:31:41.644Z,14.47
2022-10-16T06:34:12.388Z,13.89
2022-10-16T06:36:42.268Z,13.55
2022-10-16T06:39:13.728Z,14.31
2022-10-16T06:41:42.849Z,13.89
2022-10-16T06:44:15.916Z,14.01
2022-10-16T06:46:42.574Z,14.54
2022-10-16T06:49:11.626Z,14.76
2022-10-16T06:51:43.355Z,14.47
2022-10-16T06:54:11.324Z,14.62
2022-10-16T06:56:38.740Z,14.59
2022-10-16T06:59:07.795Z,14.64
2022-10-16T07:01:34.552Z,15.00
2022-10-16T07:04:02.207Z,14.91
2022-10-16T07:06:34.132Z,15.04
2022-10-16T07:09:05.766Z,15.11
2022-10-16T07:11:40.734Z,14.83
2022-10-16T07:14:21.367Z,15.24
2022-10-16T07:16:48.948Z,15.18
2022-10-16T07:19:17.970Z,15.35
2022-10-16T07:21:47.746Z,14.69
2022-10-16T07:24:17.477Z,14.91
2022-10-16T07:26:47.977Z,14.97
2022-10-16T07:29:20.993Z,15.57
2022-10-16T07:31:48.274Z,15.53
2022-10-16T07:34:17.578Z,15.45
2022-10-16T07:36:50.674Z,15.47
2022-10-16T07:39:27.245Z,15.58
2022-10-16T07:41:54.235Z,15.14
2022-10-16T07:44:23.994Z,15.59
2022-10-16T07:46:50.727Z,15.40
2022-10-16T07:49:17.544Z,15.86
2022-10-16T07:51:44.205Z,15.62
2022-10-16T07:54:11.462Z,15.57
2022-10-16T07:56:43.693Z,15.55
2022-10-16T07:59:12.532Z,16.23
2022-10-16T08:01:44.443Z,16.26
2022-10-16T08:04:18.588Z,16.29
2022-10-16T08:06:45.421Z,16.19
2022-10-16T08:09:24.222Z,16.35
2022-10-16T08:12:11.469Z,16.27
2022-10-16T08:14:48.498Z,16.33
2022-10-16T08:17:18.501Z,16.11
2022-10-16T08:19:51.257Z,16.62
2022-10-16T08:22:30.304Z,16.71
2022-10-16T08:24:59.455Z,16.03
2022-10-16T08:27:26.431Z,16.89
2022-10-16T08:29:53.259Z,16.71
2022-10-16T08:32:25.298Z,16.70
2022-10-16T08:34:55.334Z,16.81
2022-10-16T08:37:24.316Z,16.82
2022-10-16T08:39:51.658Z,16.76
2022-10-16T08:42:46.005Z,17.36
2022-10-16T08:45:31.012Z,17.44
2022-10-16T08:48:09.840Z,17.50
2022-10-16T08:50:39.487Z,17.56
2022-10-16T08:53:16.244Z,17.64
2022-10-16T08:55:45.440Z,17.73
2022-10-16T08:58:24.611Z,17.70
2022-10-16T09:01:04.915Z,17.96
2022-10-16T09:03:53.929Z,17.63
2022-10-16T09:06:37.295Z,17.58
2022-10-16T09:09:27.584Z,18.00
2022-10-16T09:11:59.001Z,18.20
2022-10-16T09:14:59.503Z,18.33
2022-10-16T09:17:51.071Z,18.52
2022-10-16T09:20:29.901Z,18.65
2022-10-16T09:23:34.300Z,18.16
2022-10-16T09:26:04.770Z,18.78
2022-10-16T09:28:31.554Z,18.32
2022-10-16T09:30:58.408Z,18.74
2022-10-16T09:33:30.499Z,18.77
2022-10-16T09:35:59.813Z,18.33
2022-10-16T09:38:32.161Z,18.85
2022-10-16T09:41:03.602Z,19.07
2022-10-16T09:43:42.331Z,19.32
2022-10-16T09:46:33.824Z,19.01
2022-10-16T09:49:01.526Z,19.13
2022-10-16T09:51:34.073Z,19.77
2022-10-16T09:54:14.538Z,19.85
2022-10-16T09:56:41.501Z,19.62
2022-10-16T09:59:21.339Z,20.16
2022-10-16T10:01:52.901Z,20.39
2022-10-16T10:04:24.669Z,20.57
2022-10-16T10:07:00.585Z,20.75
2022-10-16T10:09:30.531Z,21.21
2022-10-16T10:12:06.112Z,21.50
2022-10-16T10:14:42.831Z,21.90
2022-10-16T10:17:20.667Z,21.51
2022-10-16T10:19:56.675Z,21.99
2022-10-16T10:22:29.245Z,22.09
2022-10-16T10:25:01.105Z,22.14
2022-10-16T10:27:48.273Z,21.73
2022-10-16T10:30:26.288Z,22.29
2022-10-16T10:33:13.064Z,22.30
2022-10-16T10:36:15.793Z,22.29
2022-10-16T10:38:54.854Z,22.13
2022-10-16T10:41:27.835Z,22.81
2022-10-16T10:44:06.473Z,22.86
2022-10-16T10:46:48.768Z,22.04
2022-10-16T10:49:21.269Z,22.15
2022-10-16T10:52:06.433Z,23.00
2022-10-16T10:54:52.084Z,22.99
2022-10-16T10:57:45.746Z,22.73
2022-10-16T11:00:24.557Z,22.43
2022-10-16T11:03:22.274Z,23.12
2022-10-16T11:05:59.722Z,23.01
2022-10-16T11:08:50.127Z,23.48
2022-10-16T11:11:24.651Z,23.62
2022-10-16T11:13:57.924Z,24.33
2022-10-16T11:16:30.217Z,24.60
2022-10-16T11:19:22.431Z,24.31
2022-10-16T11:22:00.570Z,23.68
2022-10-16T11:24:45.021Z,24.35
2022-10-16T11:27:18.141Z,23.37
2022-10-16T11:29:52.455Z,24.85
2022-10-16T11:32:32.528Z,25.23
2022-10-16T11:35:12.572Z,25.59
2022-10-16T11:37:51.119Z,25.53
2022-10-16T11:40:47.224Z,25.66
2022-10-16T11:43:19.355Z,25.92
2022-10-16T11:45:56.140Z,26.17
2022-10-16T11:48:27.057Z,26.50
2022-10-16T11:51:12.116Z,26.66
2022-10-16T11:54:03.349Z,26.64
2022-10-16T11:56:33.837Z,26.57
2022-10-16T11:59:00.525Z,27.28
2022-10-16T12:01:34.727Z,27.15
2022-10-16T12:04:16.748Z,27.14
2022-10-16T12:07:13.643Z,26.34
2022-10-16T12:09:41.233Z,25.87
2022-10-16T12:12:29.152Z,26.60
2022-10-16T12:18:23.662Z,27.01
2022-10-16T12:21:05.476Z,27.34
2022-10-16T12:23:42.103Z,29.07
2022-10-16T12:26:08.814Z,29.46
2022-10-16T12:28:41.591Z,29.80
2022-10-16T12:31:13.267Z,30.48
2022-10-16T12:33:58.073Z,30.23
2022-10-16T12:36:33.474Z,30.43
2022-10-16T12:39:00.571Z,29.74
2022-10-16T12:41:34.066Z,29.97
2022-10-16T12:44:06.596Z,29.80
2022-10-16T12:46:38.414Z,30.92
2022-10-16T12:49:13.282Z,31.59
2022-10-16T12:51:41.215Z,32.06
2022-10-16T12:54:10.112Z,31.67
2022-10-16T12:57:00.395Z,31.79
2022-10-16T13:00:03.842Z,31.87
2022-10-16T13:03:01.508Z,32.25
2022-10-16T13:05:46.067Z,31.77
2022-10-16T13:08:34.179Z,32.20
2022-10-16T13:11:19.894Z,31.94
2022-10-16T13:14:20.693Z,31.84
2022-10-16T13:17:10.686Z,31.69
2022-10-16T13:19:55.416Z,31.22
2022-10-16T13:22:56.594Z,31.64
2022-10-16T13:25:33.460Z,31.55
2022-10-16T13:28:06.976Z,30.82
2022-10-16T13:30:41.484Z,31.12
2022-10-16T13:33:19.095Z,31.43
2022-10-16T13:35:58.634Z,31.68
2022-10-16T13:38:31.676Z,31.94
2022-10-16T13:41:00.062Z,31.69
2022-10-16T13:43:39.984Z,31.15
2022-10-16T13:46:15.759Z,31.62
2022-10-16T13:48:43.050Z,31.15
2022-10-16T13:51:18.491Z,31.35
2022-10-16T13:53:50.001Z,31.43
2022-10-16T13:56:22.733Z,32.26
2022-10-16T13:59:03.609Z,32.23
2022-10-16T14:01:33.019Z,32.20
2022-10-16T14:04:07.236Z,32.63
2022-10-16T14:06:34.391Z,32.87
2022-10-16T14:09:08.587Z,32.71
2022-10-16T14:11:45.563Z,32.57
2022-10-16T14:14:16.040Z,32.46
2022-10-16T14:16:44.107Z,32.66
2022-10-16T14:19:25.896Z,32.66
2022-10-16T14:21:55.372Z,32.26
2022-10-16T14:24:35.424Z,32.30
2022-10-16T14:27:02.888Z,32.23
2022-10-16T14:29:32.998Z,32.28
2022-10-16T14:32:05.499Z,32.28
2022-10-16T14:34:41.144Z,32.24
2022-10-16T14:37:17.077Z,32.33
2022-10-16T14:39:51.199Z,31.65
2022-10-16T14:42:20.374Z,30.40
2022-10-16T14:44:51.847Z,28.37
2022-10-16T14:47:25.278Z,26.57
2022-10-16T14:49:54.074Z,26.45
2022-10-16T14:52:22.855Z,25.63
2022-10-16T14:54:55.634Z,24.94
2022-10-16T14:57:30.350Z,25.86
2022-10-16T14:59:59.760Z,25.05
2022-10-16T15:02:31.486Z,25.32
2022-10-16T15:05:04.815Z,25.01
2022-10-16T15:07:31.522Z,24.74
2022-10-16T15:09:59.491Z,24.47
2022-10-16T15:12:26.231Z,23.97
2022-10-16T15:14:52.936Z,23.80
2022-10-16T15:17:22.270Z,23.47
2022-10-16T15:19:49.121Z,23.31
2022-10-16T15:22:15.914Z,23.45
2022-10-16T15:24:45.015Z,23.37
2022-10-16T15:27:11.811Z,24.21
2022-10-16T15:29:38.558Z,24.03
2022-10-16T15:32:12.769Z,24.29
2022-10-16T15:34:42.114Z,24.83
2022-10-16T15:37:14.749Z,23.83
2022-10-16T15:39:41.625Z,23.89
2022-10-16T15:42:10.784Z,22.78
2022-10-16T15:44:37.555Z,22.72
2022-10-16T15:47:05.448Z,22.52
2022-10-16T15:49:32.145Z,22.36
2022-10-16T15:51:58.885Z,21.85
2022-10-16T15:54:30.444Z,21.76
2022-10-16T15:56:57.270Z,20.86
2022-10-16T15:59:23.945Z,21.18
2022-10-16T16:01:50.721Z,21.61
2022-10-16T16:04:39.156Z,21.24
2022-10-16T16:07:08.346Z,21.77
2022-10-16T16:09:39.988Z,21.40
2022-10-16T16:12:06.721Z,21.43
2022-10-16T16:14:33.447Z,20.96
2022-10-16T16:17:00.336Z,20.44
2022-10-16T16:19:27.028Z,21.12
2022-10-16T16:21:56.092Z,20.60
2022-10-16T16:24:22.780Z,20.70
2022-10-16T16:26:51.747Z,20.27
2022-10-16T16:29:18.496Z,20.97
2022-10-16T16:31:45.417Z,20.65
2022-10-16T16:34:17.224Z,20.54
2022-10-16T16:36:51.307Z,20.01
2022-10-16T16:39:18.960Z,20.75
2022-10-16T16:41:48.067Z,20.67
2022-10-16T16:44:17.517Z,20.60
2022-10-16T16:46:44.932Z,20.40
2022-10-16T16:49:15.298Z,20.48
2022-10-16T16:51:45.581Z,19.57
2022-10-16T16:54:14.999Z,20.39
2022-10-16T16:56:44.042Z,20.37
2022-10-16T16:59:18.799Z,20.32
2022-10-16T17:01:45.569Z,20.11
2022-10-16T17:04:14.326Z,19.38
2022-10-16T17:06:46.228Z,19.84
2022-10-16T17:09:17.786Z,19.66
2022-10-16T17:11:45.590Z,19.10
2022-10-16T17:14:15.225Z,19.33
2022-10-16T17:16:44.883Z,19.75
2022-10-16T17:19:19.046Z,19.65
2022-10-16T17:21:46.220Z,19.25
2022-10-16T17:24:18.542Z,19.20
2022-10-16T17:26:49.110Z,19.37
2022-10-16T17:29:18.221Z,19.26
2022-10-16T17:31:45.567Z,19.20
2022-10-16T17:34:12.859Z,18.54
2022-10-16T17:36:46.837Z,18.44
2022-10-16T17:39:15.256Z,18.95
2022-10-16T17:41:45.152Z,18.83
2022-10-16T17:44:19.588Z,18.80
2022-10-16T17:46:51.611Z,18.81
2022-10-16T17:49:21.089Z,18.59
2022-10-16T17:51:53.673Z,18.77
2022-10-16T17:54:23.008Z,18.38
2022-10-16T17:56:49.841Z,18.38
2022-10-16T17:59:16.523Z,18.53
2022-10-16T18:01:47.674Z,18.27
2022-10-16T18:04:18.387Z,18.26
2022-10-16T18:06:47.925Z,18.24
2022-10-16T18:09:18.537Z,18.19
2022-10-16T18:11:52.493Z,17.76
2022-10-16T18:14:24.071Z,18.05
2022-10-16T18:16:52.873Z,17.76
2022-10-16T18:19:22.858Z,17.91
2022-10-16T18:21:52.027Z,17.11
2022-10-16T18:24:21.792Z,17.31
2022-10-16T18:26:49.700Z,17.73
2022-10-16T18:29:18.794Z,17.08
2022-10-16T18:31:47.974Z,17.41
2022-10-16T18:34:14.861Z,17.55
2022-10-16T18:36:43.134Z,17.52
2022-10-16T18:39:13.080Z,17.05
2022-10-16T18:41:45.732Z,17.42
2022-10-16T18:44:13.287Z,16.54
2022-10-16T18:46:42.751Z,17.30
2022-10-16T18:49:11.849Z,16.65
2022-10-16T18:51:40.819Z,16.74
2022-10-16T18:54:09.531Z,16.55
2022-10-16T18:56:39.248Z,17.14
2022-10-16T18:59:10.246Z,17.08
2022-10-16T19:01:38.863Z,16.11
2022-10-16T19:04:11.484Z,16.53
2022-10-16T19:06:50.945Z,16.46
2022-10-16T19:09:18.856Z,16.97
2022-10-16T19:11:45.935Z,16.96
2022-10-16T19:14:17.039Z,16.20
2022-10-16T19:16:46.537Z,16.97
2022-10-16T19:19:18.337Z,16.16
2022-10-16T19:21:56.100Z,16.16
2022-10-16T19:24:22.785Z,15.94
2022-10-16T19:26:49.871Z,16.44
2022-10-16T19:29:19.419Z,16.77
2022-10-16T19:31:46.191Z,16.66
2022-10-16T19:34:12.883Z,16.24
2022-10-16T19:36:40.970Z,16.72
2022-10-16T19:39:12.388Z,16.67
2022-10-16T19:41:42.233Z,16.12
2022-10-16T19:44:12.485Z,16.57
2022-10-16T19:46:41.020Z,16.56
2022-10-16T19:49:13.413Z,15.50
2022-10-16T19:51:40.426Z,15.60
2022-10-16T19:54:12.874Z,16.40
2022-10-16T19:56:42.834Z,16.15
2022-10-16T19:59:13.330Z,15.90
2022-10-16T20:01:45.415Z,16.35
2022-10-16T20:04:13.051Z,16.21
2022-10-16T20:06:40.021Z,15.59
2022-10-16T20:09:06.832Z,16.29
2022-10-16T20:11:52.416Z,16.24
2022-10-16T20:14:33.038Z,15.32
2022-10-16T20:17:00.026Z,16.15
2022-10-16T20:19:29.258Z,15.18
2022-10-16T20:21:55.952Z,16.08
2022-10-16T20:24:27.866Z,16.04
2022-10-16T20:27:01.321Z,14.96
2022-10-16T20:29:28.182Z,16.00
2022-10-16T20:31:57.129Z,15.33
2022-10-16T20:34:26.035Z,16.00
2022-10-16T20:36:53.043Z,15.60
2022-10-16T20:39:20.540Z,15.39
2022-10-16T20:41:50.307Z,15.23
2022-10-16T20:44:17.101Z,15.13
2022-10-16T20:46:46.489Z,15.75
2022-10-16T20:49:28.520Z,15.59
2022-10-16T20:52:02.333Z,15.58
2022-10-16T20:54:29.080Z,15.12
2022-10-16T20:56:58.243Z,15.33
2022-10-16T20:59:29.541Z,15.33
2022-10-16T21:01:58.641Z,15.16
2022-10-16T21:04:25.443Z,15.39
2022-10-16T21:06:52.136Z,15.04
2022-10-16T21:09:18.809Z,15.32
2022-10-16T21:11:48.571Z,15.30
2022-10-16T21:14:15.460Z,15.10
2022-10-16T21:16:42.132Z,15.01
2022-10-16T21:19:08.844Z,15.28
2022-10-16T21:21:40.032Z,14.90
2022-10-16T21:24:13.706Z,15.02
2022-10-16T21:26:43.849Z,15.15
2022-10-16T21:29:13.932Z,15.17
2022-10-16T21:31:43.844Z,15.14
2022-10-16T21:34:10.581Z,15.04
2022-10-16T21:36:39.880Z,14.94
2022-10-16T21:39:13.014Z,14.92
2022-10-16T21:41:40.850Z,14.34
2022-10-16T21:44:10.516Z,14.97
2022-10-16T21:46:41.004Z,14.87
2022-10-16T21:49:13.618Z,14.96
2022-10-16T21:51:43.438Z,14.58
2022-10-16T21:54:18.452Z,14.95
2022-10-16T21:56:45.868Z,14.92
2022-10-16T21:59:15.662Z,14.24
2022-10-16T22:01:43.168Z,14.83
2022-10-16T22:04:13.942Z,14.65
2022-10-16T22:06:43.354Z,14.81
2022-10-16T22:09:14.324Z,14.78
2022-10-16T22:11:42.998Z,14.73
2022-10-16T22:14:14.990Z,14.68
2022-10-16T22:16:42.246Z,14.42
2022-10-16T22:19:09.283Z,14.53
2022-10-16T22:21:38.027Z,14.45
2022-10-16T22:24:08.413Z,14.57
2022-10-16T22:26:38.827Z,14.39
2022-10-16T22:29:06.779Z,14.53
2022-10-16T22:31:34.027Z,14.51
2022-10-16T22:34:03.057Z,14.51
2022-10-16T22:36:30.018Z,14.43
2022-10-16T22:38:57.087Z,14.49
2022-10-16T22:41:26.203Z,14.27
2022-10-16T22:43:53.456Z,14.34
2022-10-16T22:46:23.131Z,14.11
2022-10-16T22:48:52.595Z,14.03
2022-10-16T22:51:22.069Z,14.07
2022-10-16T22:53:51.247Z,13.22
2022-10-16T22:56:22.341Z,14.10
2022-10-16T22:58:50.173Z,14.08
2022-10-16T23:01:25.989Z,14.09
2022-10-16T23:03:57.432Z,13.75
2022-10-16T23:06:24.747Z,14.08
2022-10-16T23:08:52.822Z,14.05
2022-10-16T23:11:19.518Z,13.77
2022-10-16T23:13:48.451Z,13.93
2022-10-16T23:16:16.946Z,14.02
2022-10-16T23:18:44.570Z,12.95
2022-10-16T23:21:16.307Z,14.00
2022-10-16T23:23:43.494Z,13.21
2022-10-16T23:26:15.912Z,13.96
2022-10-16T23:28:43.022Z,13.84
2022-10-16T23:31:10.832Z,13.18
2022-10-16T23:33:38.096Z,13.91
2022-10-16T23:36:06.904Z,13.17
2022-10-16T23:38:33.552Z,13.79
2022-10-16T23:41:00.547Z,13.82
2022-10-16T23:43:30.464Z,13.80
2022-10-16T23:45:57.527Z,13.33
2022-10-16T23:48:24.687Z,13.42
2022-10-16T23:50:51.448Z,13.75
2022-10-16T23:53:20.837Z,12.65
2022-10-16T23:55:49.774Z,13.68
2022-10-16T23:58:19.159Z,13.70
